Time;durP1;ratioP1;P1;durP2;ratioP2;P2;SDS_P1;SDS_P2;PMS_P1;PMS_P2;Temp;Humidity;BMP_temperature;BMP_pressure;BME280_temperature;BME280_humidity;BME280_pressure;Samples;Min_cycle;Max_cycle;Signal;HPM_P1;HPM_P2
2022/03/16 00:01:32;;;;;;;5.65;3.70;;;;;;;-3.90;47.76;101308.22;4878465;29;20193;-72
2022/03/16 00:03:56;;;;;;;12.18;4.10;;;;;;;-3.94;48.32;101313.34;4841511;29;20080;-72
2022/03/16 00:06:21;;;;;;;5.45;3.85;;;;;;;-3.91;48.14;101311.66;4876406;29;20751;-70
2022/03/16 00:08:46;;;;;;;8.68;3.83;;;;;;;-3.91;48.21;101314.28;4877714;29;20549;-71
2022/03/16 00:11:16;;;;;;;8.68;4.10;;;;;;;-3.97;48.13;101315.94;4843124;29;20087;-71
2022/03/16 00:13:41;;;;;;;6.57;3.78;;;;;;;-4.03;48.58;101327.13;4842357;29;20143;-69
2022/03/16 00:16:06;;;;;;;5.25;3.08;;;;;;;-3.99;48.34;101318.50;4853807;29;20056;-70
2022/03/16 00:18:31;;;;;;;5.95;3.85;;;;;;;-3.99;47.96;101317.63;4859384;29;20067;-70
2022/03/16 00:20:56;;;;;;;9.13;5.03;;;;;;;-3.98;48.30;101328.06;4842689;29;20846;-73
2022/03/16 00:23:20;;;;;;;6.95;4.10;;;;;;;-3.85;48.41;101316.09;4842969;29;20048;-69
2022/03/16 00:25:45;;;;;;;6.13;3.42;;;;;;;-3.94;48.34;101315.94;4842935;29;20136;-73
2022/03/16 00:28:10;;;;;;;7.82;3.85;;;;;;;-3.94;48.03;101321.16;4843060;29;20048;-74
2022/03/16 00:30:37;;;;;;;6.03;3.60;;;;;;;-4.06;48.54;101317.53;4827227;29;20049;-72
2022/03/16 00:33:02;;;;;;;7.15;4.35;;;;;;;-4.11;48.79;101314.00;4844056;29;20128;-76
2022/03/16 00:35:26;;;;;;;7.72;4.22;;;;;;;-4.16;49.65;101318.25;4827446;29;20136;-76
2022/03/16 00:37:51;;;;;;;5.05;3.65;;;;;;;-4.12;48.75;101320.06;4842530;29;20072;-75
2022/03/16 00:40:16;;;;;;;6.53;3.72;;;;;;;-4.17;49.47;101326.91;4843930;29;20136;-74
2022/03/16 00:42:41;;;;;;;7.13;3.58;;;;;;;-4.17;49.45;101323.44;4843285;29;20808;-74
2022/03/16 00:45:07;;;;;;;5.93;4.13;;;;;;;-3.95;48.62;101322.03;4854875;29;20504;-65
2022/03/16 00:47:32;;;;;;;6.63;4.55;;;;;;;-3.95;49.02;101325.50;4861771;29;20052;-67
2022/03/16 00:49:57;;;;;;;9.18;4.65;;;;;;;-4.03;48.79;101317.59;4845670;29;20044;-66
2022/03/16 00:52:21;;;;;;;7.63;4.03;;;;;;;-4.12;48.77;101325.28;4861264;29;20052;-67
2022/03/16 00:54:47;;;;;;;9.18;4.72;;;;;;;-4.17;49.34;101333.84;4862010;29;20036;-68
2022/03/16 00:57:12;;;;;;;8.02;4.10;;;;;;;-4.09;49.59;101324.44;4860852;29;20131;-65
2022/03/16 00:59:39;;;;;;;4.82;3.75;;;;;;;-4.18;49.23;101325.19;4861654;29;20132;-68
2022/03/16 01:02:04;;;;;;;8.90;5.18;;;;;;;-4.07;49.53;101326.22;4863802;29;20106;-67
2022/03/16 01:04:28;;;;;;;9.13;4.78;;;;;;;-4.20;49.30;101326.91;4864370;29;20053;-66
2022/03/16 01:06:53;;;;;;;6.15;3.80;;;;;;;-4.29;50.01;101326.75;4864782;29;20103;-67
2022/03/16 01:09:18;;;;;;;7.70;4.40;;;;;;;-4.27;49.99;101331.97;4864883;29;20543;-66
2022/03/16 01:11:43;;;;;;;7.05;3.33;;;;;;;-4.34;50.48;101331.00;4849164;29;20527;-66
2022/03/16 01:14:08;;;;;;;7.25;4.97;;;;;;;-4.30;50.15;101337.16;4864645;29;20857;-66
2022/03/16 01:16:35;;;;;;;8.55;4.00;;;;;;;-4.34;50.51;101335.34;4865327;29;20056;-67
2022/03/16 01:19:01;;;;;;;7.18;3.97;;;;;;;-4.25;49.92;101328.53;4865980;29;20591;-66
2022/03/16 01:21:25;;;;;;;6.00;3.92;;;;;;;-4.26;49.88;101331.09;4864280;29;20056;-67
2022/03/16 01:23:51;;;;;;;6.53;4.40;;;;;;;-4.32;50.25;101329.31;4864245;29;20055;-67
2022/03/16 01:26:16;;;;;;;8.82;3.90;;;;;;;-4.14;49.62;101324.38;4868035;29;20071;-66
2022/03/16 01:28:42;;;;;;;7.03;4.28;;;;;;;-4.29;50.52;101328.47;4865909;29;20044;-66
2022/03/16 01:31:06;;;;;;;5.75;3.45;;;;;;;-4.35;50.09;101334.47;4851040;29;20049;-66
2022/03/16 01:33:32;;;;;;;6.43;4.15;;;;;;;-4.37;50.60;101330.94;4867843;29;20522;-67
2022/03/16 01:35:58;;;;;;;5.60;3.53;;;;;;;-4.43;50.99;101343.88;4851457;29;20500;-68
2022/03/16 01:38:22;;;;;;;7.35;4.32;;;;;;;-4.45;50.97;101335.16;4836203;29;20084;-69
2022/03/16 01:40:47;;;;;;;9.35;4.07;;;;;;;-4.45;51.34;101337.75;4851533;29;20052;-71
2022/03/16 01:43:12;;;;;;;8.27;3.97;;;;;;;-4.44;50.68;101337.78;4866008;29;20049;-70
2022/03/16 01:45:44;;;;;;;4.85;3.85;;;;;;;-4.41;50.74;101343.06;4848003;29;20108;-69
2022/03/16 01:48:08;;;;;;;7.60;3.95;;;;;;;-4.39;50.97;101343.06;4846284;29;20508;-67
2022/03/16 01:50:33;;;;;;;10.27;4.10;;;;;;;-4.35;50.53;101333.56;4829072;29;20056;-72
2022/03/16 01:52:58;;;;;;;6.43;4.20;;;;;;;-4.34;50.70;101332.72;4866266;29;20103;-69
2022/03/16 01:55:23;;;;;;;4.97;3.53;;;;;;;-4.35;51.14;101344.00;4872843;29;20040;-65
2022/03/16 01:57:48;;;;;;;5.97;4.15;;;;;;;-4.35;50.81;101344.88;4870640;29;20052;-68
2022/03/16 02:00:15;;;;;;;11.30;4.78;;;;;;;-4.35;51.08;101338.78;4870075;29;20056;-71
2022/03/16 02:02:42;;;;;;;6.75;3.85;;;;;;;-4.39;51.02;101340.44;4855544;29;20051;-70
2022/03/16 02:05:07;;;;;;;5.28;3.72;;;;;;;-4.41;51.54;101344.78;4852638;29;20080;-71
2022/03/16 02:07:33;;;;;;;8.25;4.13;;;;;;;-4.42;51.84;101343.03;4874292;29;20058;-70
2022/03/16 02:10:04;;;;;;;10.27;4.50;;;;;;;-4.39;51.60;101340.44;4872504;29;20052;-70
2022/03/16 02:12:29;;;;;;;7.40;4.22;;;;;;;-4.34;50.80;101336.22;4881048;29;20040;-71
2022/03/16 02:14:54;;;;;;;6.47;3.97;;;;;;;-4.39;51.35;101340.44;4859961;29;20049;-69
2022/03/16 02:17:18;;;;;;;6.88;3.72;;;;;;;-4.42;51.43;101337.81;4869563;29;20559;-69
2022/03/16 02:19:44;;;;;;;7.68;4.75;;;;;;;-4.44;51.35;101331.72;4873527;29;20597;-69
2022/03/16 02:22:13;;;;;;;7.65;4.50;;;;;;;-4.40;50.74;101333.50;4876293;29;20180;-71
2022/03/16 02:24:38;;;;;;;7.68;4.38;;;;;;;-4.41;50.84;101344.78;4879858;29;20048;-71
2022/03/16 02:27:03;;;;;;;6.20;4.60;;;;;;;-4.47;51.24;101335.13;4877517;29;20037;-71
2022/03/16 02:29:29;;;;;;;5.85;4.43;;;;;;;-4.52;51.86;101336.81;4874747;29;20044;-69
2022/03/16 02:31:53;;;;;;;6.72;4.20;;;;;;;-4.48;50.92;101338.59;4873493;29;20044;-69
2022/03/16 02:34:18;;;;;;;7.63;4.18;;;;;;;-4.44;50.71;101334.31;4861037;29;20099;-70
2022/03/16 02:36:43;;;;;;;8.60;5.43;;;;;;;-4.46;50.80;101333.41;4857009;29;20036;-70
2022/03/16 02:39:08;;;;;;;6.47;4.10;;;;;;;-4.57;51.20;101335.84;4869393;29;20148;-69
2022/03/16 02:41:32;;;;;;;8.77;4.25;;;;;;;-4.64;51.80;101334.00;4849621;29;20054;-68
2022/03/16 02:43:57;;;;;;;11.75;4.13;;;;;;;-4.70;52.17;101333.88;4880857;29;20107;-65
2022/03/16 02:46:22;;;;;;;6.75;4.72;;;;;;;-4.69;52.44;101342.56;4882791;29;20047;-65
2022/03/16 02:48:47;;;;;;;7.70;3.88;;;;;;;-4.67;52.21;101346.06;4881431;29;20131;-65
2022/03/16 02:51:11;;;;;;;5.65;4.07;;;;;;;-4.66;52.93;101347.81;4882043;29;20055;-64
2022/03/16 02:53:36;;;;;;;6.20;3.47;;;;;;;-4.55;51.31;101347.16;4890243;29;20052;-65
2022/03/16 02:56:01;;;;;;;8.57;4.28;;;;;;;-4.57;51.44;101348.84;4860641;29;20069;-68
2022/03/16 02:58:25;;;;;;;5.97;3.70;;;;;;;-4.63;52.22;101347.88;4882392;29;20524;-65
2022/03/16 03:00:50;;;;;;;7.57;4.95;;;;;;;-4.63;51.85;101353.09;4870030;29;20547;-65
2022/03/16 03:03:15;;;;;;;10.55;4.85;;;;;;;-4.67;52.65;101348.66;4856276;29;20045;-65
2022/03/16 03:05:40;;;;;;;6.68;4.28;;;;;;;-4.69;52.85;101353.84;4839836;29;20047;-66
2022/03/16 03:08:05;;;;;;;5.97;3.97;;;;;;;-4.68;52.85;101349.50;4871947;29;20055;-65
2022/03/16 03:10:30;;;;;;;4.25;3.85;;;;;;;-4.66;52.88;101342.63;4857055;29;20032;-64
2022/03/16 03:12:55;;;;;;;7.03;4.10;;;;;;;-4.69;53.18;101351.22;4864766;29;20051;-66
2022/03/16 03:15:20;;;;;;;7.05;4.28;;;;;;;-4.68;53.12;101355.59;4860169;29;20052;-67
2022/03/16 03:17:46;;;;;;;7.75;4.25;;;;;;;-4.65;53.22;101359.97;4860677;29;20169;-66
2022/03/16 03:20:12;;;;;;;6.32;3.97;;;;;;;-4.65;52.94;101359.97;4861633;29;20048;-66
2022/03/16 03:22:37;;;;;;;9.77;4.13;;;;;;;-4.65;52.95;101354.78;4861605;29;20048;-66
2022/03/16 03:25:03;;;;;;;8.13;4.28;;;;;;;-4.66;52.92;101363.44;4862588;29;20112;-67
2022/03/16 03:27:30;;;;;;;7.47;4.25;;;;;;;-4.68;53.63;101362.53;4846269;29;20191;-66
2022/03/16 03:29:55;;;;;;;8.02;4.13;;;;;;;-4.68;53.49;101358.19;4862035;29;20040;-66
2022/03/16 03:32:20;;;;;;;10.23;4.70;;;;;;;-4.68;53.18;101359.91;4863202;29;20044;-66
2022/03/16 03:34:47;;;;;;;6.75;4.10;;;;;;;-4.67;53.05;101385.09;4852098;29;20534;-65
2022/03/16 03:37:13;;;;;;;8.90;5.55;;;;;;;-4.66;53.58;101374.72;4857356;29;20047;-66
2022/03/16 03:39:38;;;;;;;4.43;3.58;;;;;;;-4.66;53.35;101368.63;4857205;29;20530;-66
2022/03/16 03:42:03;;;;;;;8.90;4.30;;;;;;;-4.65;53.88;101371.28;4873680;29;20471;-66
2022/03/16 03:44:28;;;;;;;9.30;4.93;;;;;;;-4.65;53.65;101367.78;4877220;29;20051;-68
2022/03/16 03:46:52;;;;;;;6.75;4.65;;;;;;;-4.63;53.76;101373.91;4872184;29;20602;-66
2022/03/16 03:49:18;;;;;;;7.57;4.13;;;;;;;-4.64;53.52;101379.94;4862693;29;20047;-66
2022/03/16 03:51:43;;;;;;;6.40;4.53;;;;;;;-4.63;53.86;101385.19;4862214;29;20574;-65
2022/03/16 03:54:07;;;;;;;7.88;4.53;;;;;;;-4.59;53.58;101380.88;4862820;29;20437;-66
2022/03/16 03:56:32;;;;;;;9.63;5.25;;;;;;;-4.53;53.12;101381.91;4861912;29;20081;-66
2022/03/16 03:58:57;;;;;;;9.60;4.78;;;;;;;-4.47;53.23;101384.59;4849619;29;20129;-67
2022/03/16 04:01:22;;;;;;;7.88;4.63;;;;;;;-4.40;52.51;101381.22;4844235;29;20049;-66
2022/03/16 04:03:46;;;;;;;5.63;4.20;;;;;;;-4.28;52.51;101392.69;4842396;29;20543;-67
2022/03/16 04:06:11;;;;;;;6.50;4.30;;;;;;;-4.15;52.61;101389.44;4843040;29;20057;-66
2022/03/16 04:08:36;;;;;;;7.72;4.93;;;;;;;-4.00;52.67;101384.47;4845226;29;20045;-67
2022/03/16 04:11:01;;;;;;;7.90;4.32;;;;;;;-3.81;52.20;101393.44;4844258;29;20055;-66
2022/03/16 04:13:26;;;;;;;9.27;4.78;;;;;;;-3.57;51.69;101390.31;4843218;29;20526;-66
2022/03/16 04:15:51;;;;;;;8.25;3.97;;;;;;;-3.32;51.23;101392.38;4843291;29;20567;-67
2022/03/16 04:18:16;;;;;;;7.35;4.78;;;;;;;-3.08;50.82;101391.81;4842062;29;20611;-66
2022/03/16 04:20:40;;;;;;;7.05;4.20;;;;;;;-2.87;50.42;101399.00;4841843;29;20678;-64
2022/03/16 04:23:05;;;;;;;6.72;4.32;;;;;;;-2.71;50.15;101388.72;4826655;29;20047;-64
2022/03/16 04:25:30;;;;;;;6.93;4.82;;;;;;;-2.52;50.04;101399.38;4842148;29;20470;-64
2022/03/16 04:27:55;;;;;;;7.25;4.25;;;;;;;-2.32;49.73;101400.44;4826303;29;20512;-64
2022/03/16 04:30:20;;;;;;;10.32;5.60;;;;;;;-2.09;48.77;101405.84;4847005;29;20064;-65
2022/03/16 04:32:44;;;;;;;7.78;4.60;;;;;;;-1.88;48.34;101408.63;4846920;29;20049;-64
2022/03/16 04:35:09;;;;;;;7.70;4.18;;;;;;;-1.68;48.07;101400.91;4846934;29;20045;-62
2022/03/16 04:37:35;;;;;;;18.83;5.60;;;;;;;-1.50;47.73;101398.41;4843116;29;20633;-64
2022/03/16 04:40:00;;;;;;;9.73;5.55;;;;;;;-1.34;47.40;101410.69;4842230;29;20052;-64
2022/03/16 04:42:24;;;;;;;9.18;6.75;;;;;;;-1.22;47.45;101413.38;4843194;29;20487;-63
2022/03/16 04:44:49;;;;;;;14.88;6.53;;;;;;;-1.12;46.86;101409.03;4841405;29;20577;-63
2022/03/16 04:47:14;;;;;;;12.55;7.25;;;;;;;-1.02;46.56;101407.38;4842714;29;20112;-63
2022/03/16 04:49:39;;;;;;;12.18;7.75;;;;;;;-0.92;46.71;101409.16;4841569;29;20575;-64
2022/03/16 04:52:04;;;;;;;10.18;6.82;;;;;;;-0.80;46.09;101409.19;4826163;29;20516;-63
2022/03/16 04:54:29;;;;;;;13.38;6.60;;;;;;;-0.63;46.04;101407.47;4843519;29;20056;-64
2022/03/16 04:56:54;;;;;;;12.32;7.40;;;;;;;-0.45;45.33;101412.72;4843776;29;20044;-64
2022/03/16 04:59:18;;;;;;;11.60;7.32;;;;;;;-0.28;45.37;101404.03;4844282;29;20105;-65
2022/03/16 05:01:43;;;;;;;14.93;7.22;;;;;;;-0.09;44.87;101411.03;4843681;29;20045;-64
2022/03/16 05:04:08;;;;;;;8.90;5.75;;;;;;;0.09;44.79;101418.03;4844081;29;20084;-64
2022/03/16 05:06:33;;;;;;;12.82;6.03;;;;;;;0.25;44.12;101414.50;4844843;29;20190;-65
2022/03/16 05:08:58;;;;;;;11.38;6.20;;;;;;;0.40;44.06;101417.09;4846651;29;20576;-65
2022/03/16 05:11:23;;;;;;;10.55;6.43;;;;;;;0.57;43.47;101417.06;4841426;29;20453;-66
2022/03/16 05:13:48;;;;;;;10.57;6.80;;;;;;;0.79;43.04;101416.13;4843058;29;20049;-64
2022/03/16 05:16:12;;;;;;;9.95;6.13;;;;;;;0.94;42.74;101426.56;4842758;29;20060;-64
2022/03/16 05:18:40;;;;;;;10.43;6.95;;;;;;;1.16;42.84;101418.59;4841089;29;20065;-67
2022/03/16 05:21:07;;;;;;;10.60;6.13;;;;;;;1.36;41.71;101419.38;4841572;29;20520;-67
2022/03/16 05:23:32;;;;;;;10.02;6.30;;;;;;;1.51;41.52;101413.16;4841889;29;20595;-66
2022/03/16 05:25:57;;;;;;;12.15;7.60;;;;;;;1.52;41.16;101421.03;4826459;29;20568;-66
2022/03/16 05:28:22;;;;;;;12.73;7.10;;;;;;;1.65;40.88;101414.81;4842150;29;20480;-67
2022/03/16 05:30:47;;;;;;;10.63;6.72;;;;;;;1.88;40.60;101419.91;4843155;29;20477;-66
2022/03/16 05:33:12;;;;;;;14.60;7.63;;;;;;;2.16;40.04;101417.91;4844854;29;20139;-65
2022/03/16 05:35:38;;;;;;;13.80;6.97;;;;;;;2.51;39.45;101412.31;4845785;29;20080;-65
2022/03/16 05:38:05;;;;;;;8.70;6.00;;;;;;;2.80;38.94;101418.16;4849471;29;20048;-66
2022/03/16 05:40:30;;;;;;;8.25;5.47;;;;;;;3.14;38.01;101410.72;4813936;29;20563;-66
2022/03/16 05:42:55;;;;;;;13.57;6.85;;;;;;;3.49;38.00;101422.56;4844210;29;20508;-65
2022/03/16 05:45:20;;;;;;;9.77;6.07;;;;;;;3.82;37.30;101427.31;4844040;29;20052;-68
2022/03/16 05:47:45;;;;;;;9.68;6.43;;;;;;;4.15;35.95;101422.41;4845544;29;20180;-66
2022/03/16 05:50:09;;;;;;;12.05;7.07;;;;;;;4.46;35.42;101428.88;4837282;29;20089;-66
2022/03/16 05:52:35;;;;;;;11.05;7.03;;;;;;;4.71;34.79;101429.31;4835290;29;20520;-66
2022/03/16 05:55:00;;;;;;;14.77;7.30;;;;;;;5.02;34.76;101421.63;4850760;29;20040;-66
2022/03/16 05:57:25;;;;;;;11.88;7.05;;;;;;;5.29;34.33;101426.38;4851484;29;20052;-67
2022/03/16 05:59:51;;;;;;;12.23;7.75;;;;;;;5.57;33.56;101426.63;4850904;29;20069;-65
2022/03/16 06:02:17;;;;;;;12.05;7.03;;;;;;;5.78;33.19;101428.75;4849973;29;20445;-65
2022/03/16 06:04:45;;;;;;;21.67;7.82;;;;;;;5.92;32.56;101427.59;4852962;29;20041;-66
2022/03/16 06:07:11;;;;;;;11.93;7.00;;;;;;;6.16;32.40;101422.59;4850814;29;20045;-65
2022/03/16 06:09:36;;;;;;;13.18;7.03;;;;;;;6.53;31.92;101422.53;4850967;29;20059;-66
2022/03/16 06:12:03;;;;;;;17.75;7.57;;;;;;;6.87;31.06;101424.25;4851816;29;20420;-65
2022/03/16 06:14:28;;;;;;;10.93;7.38;;;;;;;7.17;30.80;101438.41;4850155;29;20036;-64
2022/03/16 06:16:52;;;;;;;13.32;6.95;;;;;;;7.25;30.64;101429.31;4853818;29;20109;-64
2022/03/16 06:19:18;;;;;;;12.25;7.13;;;;;;;7.56;30.23;101437.22;4853504;29;20247;-63
2022/03/16 06:21:43;;;;;;;13.07;6.85;;;;;;;8.00;29.50;101429.66;4851859;29;20156;-63
2022/03/16 06:24:07;;;;;;;10.80;6.93;;;;;;;8.36;29.33;101438.22;4846879;29;20109;-67
2022/03/16 06:26:32;;;;;;;15.07;7.90;;;;;;;8.49;28.65;101439.53;4830018;29;20055;-64
2022/03/16 06:28:57;;;;;;;14.77;8.07;;;;;;;8.55;28.36;101433.16;4846234;29;20420;-63
2022/03/16 06:31:22;;;;;;;15.23;7.28;;;;;;;8.83;28.10;101439.22;4846225;29;20417;-64
2022/03/16 06:33:47;;;;;;;10.65;6.53;;;;;;;9.18;27.88;101432.63;4849215;29;20420;-65
2022/03/16 06:36:11;;;;;;;15.27;7.20;;;;;;;9.60;27.40;101435.44;4849874;29;20428;-63
2022/03/16 06:38:36;;;;;;;16.65;7.18;;;;;;;10.14;26.55;101434.19;4850997;29;20160;-63
2022/03/16 06:41:01;;;;;;;11.18;7.40;;;;;;;10.94;25.64;101431.66;4835301;29;20049;-64
2022/03/16 06:43:26;;;;;;;12.50;7.43;;;;;;;11.55;24.95;101441.25;4851094;29;20045;-63
2022/03/16 06:45:51;;;;;;;14.27;7.60;;;;;;;12.25;23.84;101434.34;4850733;29;20483;-63
2022/03/16 06:48:16;;;;;;;11.40;7.05;;;;;;;12.75;23.83;101433.59;4853858;29;20072;-65
2022/03/16 06:50:40;;;;;;;13.10;8.90;;;;;;;13.22;23.32;101441.81;4855802;29;20051;-63
2022/03/16 06:53:05;;;;;;;15.98;7.50;;;;;;;13.88;22.33;101441.72;4837581;29;20409;-63
2022/03/16 06:55:30;;;;;;;13.02;7.75;;;;;;;13.99;22.06;101433.94;4835150;29;20045;-63
2022/03/16 06:57:55;;;;;;;10.70;7.68;;;;;;;14.25;22.31;101445.84;4851019;29;20051;-63
2022/03/16 07:00:20;;;;;;;11.35;7.45;;;;;;;14.38;21.86;101449.53;4850788;29;20049;-62
2022/03/16 07:02:58;;;;;;;11.52;7.47;;;;;;;14.42;22.13;101451.13;4851405;29;20148;-64
2022/03/16 07:05:28;;;;;;;15.00;7.50;;;;;;;13.62;21.90;101452.09;4849211;29;20053;-64
2022/03/16 07:07:58;;;;;;;17.50;10.13;;;;;;;12.83;21.93;101467.03;4849846;29;20045;-64
2022/03/16 07:10:23;;;;;;;11.20;6.28;;;;;;;12.43;22.60;101454.81;4849748;29;20101;-63
2022/03/16 07:12:48;;;;;;;11.98;7.15;;;;;;;11.94;22.00;101457.25;4847879;29;20049;-64
2022/03/16 07:15:14;;;;;;;12.75;7.07;;;;;;;12.18;22.13;101465.88;4835883;29;20067;-65
2022/03/16 07:17:39;;;;;;;9.90;6.82;;;;;;;12.65;21.63;101459.94;4851721;29;20120;-67
2022/03/16 07:20:06;;;;;;;10.55;6.25;;;;;;;13.10;21.76;101464.72;4834044;29;20113;-63
2022/03/16 07:22:31;;;;;;;9.65;6.65;;;;;;;12.96;21.42;101465.47;4848350;29;20045;-68
2022/03/16 07:24:56;;;;;;;30.08;8.07;;;;;;;13.06;21.18;101466.72;4856095;29;20104;-67
2022/03/16 07:27:21;;;;;;;12.23;7.28;;;;;;;13.55;20.82;101460.53;4847936;29;20057;-66
2022/03/16 07:29:45;;;;;;;14.10;8.23;;;;;;;14.29;20.56;101450.06;4847091;29;20052;-69
2022/03/16 07:32:12;;;;;;;12.18;7.28;;;;;;;14.94;19.84;101456.06;4847518;29;20048;-66
2022/03/16 07:34:37;;;;;;;13.25;7.20;;;;;;;14.88;19.23;101452.81;4850056;29;20037;-65
2022/03/16 07:37:01;;;;;;;12.32;8.40;;;;;;;14.88;19.84;101450.13;4846849;29;20049;-65
2022/03/16 07:39:26;;;;;;;10.88;7.47;;;;;;;15.16;19.43;101453.78;4845869;29;20068;-65
2022/03/16 07:41:51;;;;;;;11.65;7.43;;;;;;;15.68;19.18;101447.88;4844623;29;20505;-66
2022/03/16 07:44:16;;;;;;;14.63;7.30;;;;;;;15.18;19.24;101450.03;4861617;29;20041;-66
2022/03/16 07:46:41;;;;;;;13.95;7.78;;;;;;;15.06;19.45;101456.16;4861573;29;20060;-67
2022/03/16 07:49:06;;;;;;;11.57;7.22;;;;;;;15.21;18.75;101454.38;4861047;29;20059;-66
2022/03/16 07:51:31;;;;;;;10.25;7.63;;;;;;;15.39;18.77;101449.66;4862502;29;20044;-65
2022/03/16 07:53:55;;;;;;;10.75;7.53;;;;;;;15.62;18.40;101443.72;4861271;29;20128;-65
2022/03/16 07:56:20;;;;;;;13.80;8.07;;;;;;;16.07;18.36;101450.66;4862870;29;20052;-66
2022/03/16 07:58:45;;;;;;;11.77;7.13;;;;;;;16.08;17.42;101443.44;4845575;29;20044;-65
2022/03/16 08:01:10;;;;;;;8.77;6.22;;;;;;;15.90;18.31;101443.69;4862556;29;20047;-66
2022/03/16 08:03:35;;;;;;;13.45;7.45;;;;;;;15.40;18.26;101438.81;4862526;29;20044;-67
2022/03/16 08:06:00;;;;;;;9.77;6.15;;;;;;;15.22;17.97;101437.28;4863120;29;20058;-64
2022/03/16 08:08:25;;;;;;;16.85;7.40;;;;;;;14.50;18.54;101436.28;4861771;29;20070;-68
2022/03/16 08:10:49;;;;;;;11.73;7.05;;;;;;;15.00;18.26;101440.44;4861445;29;20162;-67
2022/03/16 08:13:14;;;;;;;10.98;6.50;;;;;;;15.72;17.43;101435.94;4862390;29;20071;-69
2022/03/16 08:15:39;;;;;;;9.02;6.30;;;;;;;16.05;17.21;101436.44;4862514;29;20496;-67
2022/03/16 08:18:04;;;;;;;11.05;6.95;;;;;;;16.69;17.03;101435.72;4845400;29;20044;-67
2022/03/16 08:20:28;;;;;;;14.25;7.80;;;;;;;17.46;16.82;101433.88;4862468;29;20435;-65
2022/03/16 08:22:57;;;;;;;12.40;6.95;;;;;;;18.03;16.19;101433.34;4862140;29;20041;-67
2022/03/16 08:25:22;;;;;;;13.88;7.00;;;;;;;18.28;16.34;101433.25;4860620;29;20049;-66
2022/03/16 08:27:48;;;;;;;9.95;6.65;;;;;;;17.94;15.82;101431.31;4862499;29;20049;-65
2022/03/16 08:30:13;;;;;;;11.95;6.60;;;;;;;18.12;15.87;101438.03;4861121;29;20123;-65
2022/03/16 08:32:39;;;;;;;13.25;7.68;;;;;;;18.59;15.55;101433.63;4860835;29;20068;-66
2022/03/16 08:35:06;;;;;;;11.00;6.63;;;;;;;19.26;15.29;101436.47;4862022;29;20051;-65
2022/03/16 08:37:31;;;;;;;9.95;6.50;;;;;;;19.84;14.73;101433.53;4860861;29;20048;-68
2022/03/16 08:39:55;;;;;;;10.00;6.43;;;;;;;19.93;14.71;101443.59;4845366;29;20051;-65
2022/03/16 08:42:20;;;;;;;12.73;7.03;;;;;;;19.30;14.88;101435.25;4860790;29;20041;-66
2022/03/16 08:44:48;;;;;;;11.77;7.25;;;;;;;19.29;14.88;101442.50;4862335;29;20530;-66
2022/03/16 08:47:16;;;;;;;10.63;7.20;;;;;;;19.62;14.51;101438.13;4862314;29;20135;-67
2022/03/16 08:49:41;;;;;;;9.85;7.10;;;;;;;19.81;14.45;101422.09;4863402;29;20056;-67
2022/03/16 08:52:06;;;;;;;11.63;7.40;;;;;;;20.05;14.30;101424.63;4847475;29;20150;-67
2022/03/16 08:54:31;;;;;;;10.27;6.85;;;;;;;20.50;14.39;101431.66;4847832;29;20547;-66
2022/03/16 08:56:56;;;;;;;9.82;7.30;;;;;;;20.90;13.79;101430.94;4879137;29;20048;-66
2022/03/16 08:59:21;;;;;;;11.50;7.78;;;;;;;20.71;13.85;101439.78;4879544;29;20091;-67
2022/03/16 09:01:45;;;;;;;12.07;7.03;;;;;;;20.61;13.65;101433.44;4849808;29;20075;-65
2022/03/16 09:04:10;;;;;;;13.50;8.13;;;;;;;20.83;13.68;101440.59;4867994;29;20100;-66
2022/03/16 09:06:35;;;;;;;12.57;7.80;;;;;;;21.15;13.27;101444.09;4864201;29;20052;-66
2022/03/16 09:09:00;;;;;;;10.88;7.22;;;;;;;21.34;13.49;101438.78;4862729;29;20056;-66
2022/03/16 09:11:24;;;;;;;11.85;6.82;;;;;;;21.49;13.35;101446.56;4878075;29;20054;-67
2022/03/16 09:13:49;;;;;;;14.15;7.45;;;;;;;21.73;13.04;101436.25;4862778;29;20356;-66
2022/03/16 09:16:14;;;;;;;12.52;7.75;;;;;;;21.41;13.02;101438.25;4862610;29;20051;-66
2022/03/16 09:18:39;;;;;;;11.15;7.50;;;;;;;20.64;13.49;101439.47;4878619;29;20060;-68
2022/03/16 09:21:04;;;;;;;11.77;7.22;;;;;;;19.74;13.64;101440.69;4878534;29;20060;-67
2022/03/16 09:23:31;;;;;;;11.10;7.75;;;;;;;17.71;14.79;101447.38;4869087;29;20499;-66
2022/03/16 09:25:56;;;;;;;10.73;7.43;;;;;;;15.13;16.69;101438.72;4849055;29;20878;-66
2022/03/16 09:28:21;;;;;;;11.18;7.22;;;;;;;13.78;17.36;101446.72;4864376;29;20139;-64
2022/03/16 09:30:46;;;;;;;12.52;7.57;;;;;;;13.71;17.89;101440.84;4865052;29;20155;-62
2022/03/16 09:33:11;;;;;;;13.55;7.90;;;;;;;14.59;17.61;101434.88;4866341;29;20060;-63
2022/03/16 09:35:35;;;;;;;13.82;8.20;;;;;;;14.31;16.91;101429.41;4866895;29;20056;-64
2022/03/16 09:38:00;;;;;;;11.20;7.32;;;;;;;13.09;17.82;101431.72;4866661;29;20083;-65
2022/03/16 09:40:25;;;;;;;16.42;7.63;;;;;;;11.50;18.97;101432.63;4848949;29;20044;-64
2022/03/16 09:42:52;;;;;;;12.13;6.95;;;;;;;10.27;20.03;101434.59;4865383;29;20605;-63
2022/03/16 09:45:19;;;;;;;9.02;6.78;;;;;;;10.04;20.56;101432.81;4849374;29;20044;-64
2022/03/16 09:47:45;;;;;;;12.52;7.63;;;;;;;10.48;20.12;101439.88;4865576;29;20440;-64
2022/03/16 09:50:11;;;;;;;13.32;7.03;;;;;;;11.01;20.02;101443.78;4864122;29;20044;-65
2022/03/16 09:52:36;;;;;;;14.48;8.43;;;;;;;11.38;19.63;101440.34;4865556;29;20060;-64
2022/03/16 09:55:05;;;;;;;12.35;7.43;;;;;;;11.11;19.83;101435.31;4866163;29;20045;-64
2022/03/16 09:57:30;;;;;;;13.18;8.05;;;;;;;10.82;19.71;101433.94;4865658;29;20044;-64
2022/03/16 09:59:54;;;;;;;13.68;7.68;;;;;;;10.61;20.16;101434.03;4865468;29;20048;-64
2022/03/16 10:02:21;;;;;;;11.52;6.63;;;;;;;10.98;19.68;101442.13;4865221;29;20056;-66
2022/03/16 10:04:47;;;;;;;17.05;8.65;;;;;;;11.48;19.66;101436.28;4866427;29;20048;-65
2022/03/16 10:07:11;;;;;;;11.88;8.10;;;;;;;10.57;20.04;101432.41;4866038;29;20040;-65
2022/03/16 10:15:18;;;;;;;11.95;6.88;;;;;;;12.50;18.57;101428.63;4864607;29;20127;-65
2022/03/16 10:17:48;;;;;;;12.43;7.03;;;;;;;12.26;18.98;101425.38;4865023;29;20111;-66
2022/03/16 10:20:31;;;;;;;11.05;7.15;;;;;;;12.48;19.23;101436.75;4873160;29;20056;-65
2022/03/16 10:22:59;;;;;;;13.55;8.07;;;;;;;12.69;18.83;101432.97;4872898;29;20086;-67
2022/03/16 10:25:25;;;;;;;9.35;7.03;;;;;;;12.53;18.83;101426.66;4874449;29;20048;-67
2022/03/16 10:27:50;;;;;;;12.00;6.90;;;;;;;11.68;19.18;101417.50;4865154;29;20443;-66
2022/03/16 10:30:14;;;;;;;11.02;7.95;;;;;;;10.07;20.55;101436.22;4864261;29;20409;-68
2022/03/16 10:32:40;;;;;;;11.90;7.80;;;;;;;8.83;21.91;101441.88;4864096;29;20056;-67
2022/03/16 10:35:05;;;;;;;10.13;6.75;;;;;;;7.63;22.81;101438.78;4862559;29;20036;-66
2022/03/16 10:37:35;;;;;;;11.48;7.50;;;;;;;6.56;23.76;101442.75;4863990;29;20498;-66
2022/03/16 10:39:59;;;;;;;11.60;7.15;;;;;;;5.72;24.77;101449.22;4863858;29;20100;-67
2022/03/16 10:47:59;;;;;;;10.43;6.05;;;;;;;4.73;26.10;101441.59;4868091;29;20056;-65
2022/03/16 10:50:25;;;;;;;13.93;6.50;;;;;;;4.41;26.18;101437.78;4868184;29;20048;-65
2022/03/16 10:52:50;;;;;;;11.20;6.43;;;;;;;4.11;26.23;101439.16;4869328;29;20041;-64
2022/03/16 10:55:15;;;;;;;14.75;6.40;;;;;;;3.88;27.36;101437.78;4864225;29;20095;-66
2022/03/16 10:57:43;;;;;;;11.27;5.80;;;;;;;3.74;27.78;101439.72;4848830;29;20135;-66
2022/03/16 11:00:08;;;;;;;8.88;5.38;;;;;;;3.47;27.54;101429.59;4863239;29;20036;-67
2022/03/16 11:02:35;;;;;;;9.88;5.75;;;;;;;3.19;27.92;101429.97;4867149;29;20098;-74
2022/03/16 11:05:00;;;;;;;9.75;5.40;;;;;;;2.99;28.22;101437.25;4881559;29;20052;-72
2022/03/16 11:07:25;;;;;;;7.47;4.88;;;;;;;2.99;27.92;101436.38;4870928;29;20048;-71
2022/03/16 11:09:52;;;;;;;5.97;4.38;;;;;;;3.04;27.71;101431.94;4838857;29;20044;-68
2022/03/16 11:15:05;;;;;;;8.65;5.32;;;;;;;2.27;28.91;101429.22;4888480;29;20406;-67
2022/03/16 11:17:30;;;;;;;7.30;4.90;;;;;;;2.23;29.05;101434.53;4894292;29;20052;-68
2022/03/16 11:19:56;;;;;;;11.90;5.32;;;;;;;2.04;29.09;101423.28;4891901;29;20056;-69
2022/03/16 11:25:57;;;;;;;14.02;5.60;;;;;;;1.69;29.80;101426.19;4873806;29;20099;-73
2022/03/16 11:28:56;;;;;;;9.35;5.38;;;;;;;1.69;29.75;101426.19;4867839;29;20051;-72
2022/03/16 11:31:28;;;;;;;9.35;4.55;;;;;;;1.67;30.41;101418.31;4807236;29;20049;-72